createdAt,value
2023-06-19T00:00:48.343Z,1000.81
2023-06-19T00:01:48.334Z,1000.95
2023-06-19T00:02:48.299Z,1001.12
2023-06-19T00:03:48.330Z,1001.15
2023-06-19T00:04:48.259Z,1001.03
2023-06-19T00:05:48.272Z,1000.93
2023-06-19T00:06:48.276Z,1000.89
2023-06-19T00:07:48.269Z,1000.94
2023-06-19T00:08:48.218Z,1001.01
2023-06-19T00:09:48.241Z,1001.01
2023-06-19T00:10:48.194Z,1000.97
2023-06-19T00:11:48.214Z,1000.90
2023-06-19T00:12:48.196Z,1000.93
2023-06-19T00:13:48.192Z,1000.96
2023-06-19T00:14:48.163Z,1000.99
2023-06-19T00:15:48.205Z,1000.99
2023-06-19T00:16:48.190Z,1000.97
2023-06-19T00:17:48.223Z,1000.96
2023-06-19T00:18:48.116Z,1000.99
2023-06-19T00:19:54.636Z,1001.01
2023-06-19T00:20:48.081Z,1001.03
2023-06-19T00:21:48.092Z,1001.03
2023-06-19T00:22:48.063Z,1001.03
2023-06-19T00:23:48.101Z,1001.03
2023-06-19T00:24:48.056Z,1001.04
2023-06-19T00:25:48.089Z,1001.06
2023-06-19T00:26:48.045Z,1001.07
2023-06-19T00:27:48.051Z,1001.07
2023-06-19T00:28:48.000Z,1001.06
2023-06-19T00:29:48.050Z,1001.07
2023-06-19T00:30:47.995Z,1001.09
2023-06-19T00:31:48.026Z,1001.11
2023-06-19T00:32:48.144Z,1001.12
2023-06-19T00:33:47.973Z,1001.13
2023-06-19T00:34:47.976Z,1001.14
2023-06-19T00:35:47.955Z,1001.14
2023-06-19T00:36:47.908Z,1001.13
2023-06-19T00:37:48.009Z,1001.11
2023-06-19T00:38:47.892Z,1001.09
2023-06-19T00:39:47.922Z,1001.09
2023-06-19T00:40:47.900Z,1001.09
2023-06-19T00:41:47.894Z,1001.10
2023-06-19T00:42:47.853Z,1001.11
2023-06-19T00:43:47.851Z,1001.13
2023-06-19T00:44:47.839Z,1001.13
2023-06-19T00:45:47.905Z,1001.13
2023-06-19T00:46:47.905Z,1001.14
2023-06-19T00:47:47.925Z,1001.15
2023-06-19T00:48:47.781Z,1001.18
2023-06-19T00:49:47.786Z,1001.23
2023-06-19T00:50:47.772Z,1001.25
2023-06-19T00:51:47.793Z,1001.25
2023-06-19T00:52:47.727Z,1001.27
2023-06-19T00:53:47.757Z,1001.30
2023-06-19T00:54:47.753Z,1001.30
2023-06-19T00:55:47.726Z,1001.33
2023-06-19T00:56:47.705Z,1001.36
2023-06-19T00:57:47.770Z,1001.38
2023-06-19T00:58:47.672Z,1001.41
2023-06-19T00:59:47.709Z,1001.43
2023-06-19T01:00:56.302Z,1001.45
2023-06-19T01:01:47.738Z,1001.45
2023-06-19T01:02:47.762Z,1001.44
2023-06-19T01:03:47.892Z,1001.43
2023-06-19T01:04:47.685Z,1001.42
2023-06-19T01:05:47.631Z,1001.42
2023-06-19T01:06:47.606Z,1001.43
2023-06-19T01:07:47.586Z,1001.41
2023-06-19T01:08:47.643Z,1001.36
2023-06-19T01:09:47.558Z,1001.35
2023-06-19T01:10:47.560Z,1001.33
2023-06-19T01:11:47.521Z,1001.34
2023-06-19T01:12:47.567Z,1001.35
2023-06-19T01:13:47.508Z,1001.37
2023-06-19T01:14:47.570Z,1001.38
2023-06-19T01:15:47.490Z,1001.37
2023-06-19T01:16:47.569Z,1001.35
2023-06-19T01:17:47.490Z,1001.33
2023-06-19T01:18:47.477Z,1001.33
2023-06-19T01:19:47.464Z,1001.29
2023-06-19T01:20:47.457Z,1001.29
2023-06-19T01:21:47.434Z,1001.29
2023-06-19T01:22:47.454Z,1001.27
2023-06-19T01:23:47.419Z,1001.26
2023-06-19T01:24:47.425Z,1001.27
2023-06-19T01:25:47.431Z,1001.28
2023-06-19T01:26:47.402Z,1001.28
2023-06-19T01:27:47.359Z,1001.28
2023-06-19T01:28:47.408Z,1001.30
2023-06-19T01:29:47.374Z,1001.32
2023-06-19T01:30:47.365Z,1001.34
2023-06-19T01:31:47.321Z,1001.34
2023-06-19T01:32:47.354Z,1001.36
2023-06-19T01:33:47.317Z,1001.36
2023-06-19T01:34:47.300Z,1001.36
2023-06-19T01:35:47.264Z,1001.37
2023-06-19T01:36:47.353Z,1001.38
2023-06-19T01:37:47.322Z,1001.39
2023-06-19T01:38:47.270Z,1001.39
2023-06-19T01:39:47.227Z,1001.39
2023-06-19T01:40:47.253Z,1001.36
2023-06-19T01:41:47.261Z,1001.33
2023-06-19T01:42:47.289Z,1001.31
2023-06-19T01:43:47.180Z,1001.30
2023-06-19T01:44:47.215Z,1001.30
2023-06-19T01:45:47.170Z,1001.32
2023-06-19T01:46:47.220Z,1001.34
2023-06-19T01:47:47.224Z,1001.35
2023-06-19T01:48:47.185Z,1001.34
2023-06-19T01:49:47.118Z,1001.33
2023-06-19T01:50:47.138Z,1001.34
2023-06-19T01:51:47.114Z,1001.36
2023-06-19T01:52:47.096Z,1001.39
2023-06-19T01:53:47.099Z,1001.40
2023-06-19T01:54:47.078Z,1001.40
2023-06-19T01:55:47.103Z,1001.40
2023-06-19T01:56:47.079Z,1001.41
2023-06-19T01:57:47.031Z,1001.44
2023-06-19T01:58:47.058Z,1001.46
2023-06-19T01:59:47.046Z,1001.48
2023-06-19T02:00:47.039Z,1001.48
2023-06-19T02:01:46.967Z,1001.48
2023-06-19T02:02:47.183Z,1001.47
2023-06-19T02:03:47.085Z,1001.45
2023-06-19T02:04:46.966Z,1001.45
2023-06-19T02:05:46.995Z,1001.44
2023-06-19T02:06:46.971Z,1001.46
2023-06-19T02:07:46.947Z,1001.48
2023-06-19T02:08:46.953Z,1001.49
2023-06-19T02:09:46.894Z,1001.51
2023-06-19T02:10:46.952Z,1001.53
2023-06-19T02:11:46.868Z,1001.54
2023-06-19T02:12:46.871Z,1001.56
2023-06-19T02:13:46.909Z,1001.59
2023-06-19T02:14:46.861Z,1001.60
2023-06-19T02:15:46.850Z,1001.61
2023-06-19T02:16:46.930Z,1001.63
2023-06-19T02:17:46.848Z,1001.65
2023-06-19T02:18:46.813Z,1001.67
2023-06-19T02:19:46.788Z,1001.68
2023-06-19T02:20:46.807Z,1001.69
2023-06-19T02:21:46.788Z,1001.71
2023-06-19T02:22:46.797Z,1001.72
2023-06-19T02:23:46.771Z,1001.74
2023-06-19T02:24:46.805Z,1001.73
2023-06-19T02:25:46.735Z,1001.73
2023-06-19T02:26:46.741Z,1001.74
2023-06-19T02:27:46.704Z,1001.75
2023-06-19T02:28:46.725Z,1001.74
2023-06-19T02:29:46.681Z,1001.72
2023-06-19T02:30:46.713Z,1001.69
2023-06-19T02:31:46.656Z,1001.68
2023-06-19T02:32:46.737Z,1001.69
2023-06-19T02:33:46.640Z,1001.71
2023-06-19T02:34:46.659Z,1001.72
2023-06-19T02:35:46.607Z,1001.76
2023-06-19T02:36:46.665Z,1001.77
2023-06-19T02:37:46.583Z,1001.78
2023-06-19T02:38:46.612Z,1001.79
2023-06-19T02:39:46.613Z,1001.82
2023-06-19T02:40:46.578Z,1001.84
2023-06-19T02:41:46.590Z,1001.87
2023-06-19T02:42:46.560Z,1001.88
2023-06-19T02:43:46.526Z,1001.88
2023-06-19T02:44:46.558Z,1001.88
2023-06-19T02:45:46.546Z,1001.89
2023-06-19T02:46:46.555Z,1001.92
2023-06-19T02:47:46.514Z,1001.94
2023-06-19T02:48:46.546Z,1001.94
2023-06-19T02:49:46.476Z,1001.95
2023-06-19T02:50:46.471Z,1001.96
2023-06-19T02:51:46.477Z,1001.97
2023-06-19T02:52:46.450Z,1002.00
2023-06-19T02:53:46.421Z,1002.01
2023-06-19T02:54:46.425Z,1002.01
2023-06-19T02:55:46.378Z,1002.01
2023-06-19T02:56:46.433Z,1002.01
2023-06-19T02:57:46.353Z,1001.99
2023-06-19T02:58:46.385Z,1001.99
2023-06-19T02:59:46.342Z,1002.02
2023-06-19T03:00:46.350Z,1002.02
2023-06-19T03:01:46.344Z,1002.05
2023-06-19T03:02:46.463Z,1002.09
2023-06-19T03:03:46.332Z,1002.12
2023-06-19T03:04:46.313Z,1002.12
2023-06-19T03:05:46.260Z,1002.13
2023-06-19T03:06:46.276Z,1002.14
2023-06-19T03:07:46.258Z,1002.12
2023-06-19T03:08:46.270Z,1002.13
2023-06-19T03:09:46.220Z,1002.18
2023-06-19T03:10:46.254Z,1002.21
2023-06-19T03:11:46.207Z,1002.24
2023-06-19T03:12:46.204Z,1002.28
2023-06-19T03:13:46.177Z,1002.29
2023-06-19T03:14:46.215Z,1002.30
2023-06-19T03:15:46.192Z,1002.31
2023-06-19T03:16:46.202Z,1002.32
2023-06-19T03:17:46.187Z,1002.34
2023-06-19T03:18:46.387Z,1002.34
2023-06-19T03:19:46.125Z,1002.34
2023-06-19T03:20:46.182Z,1002.34
2023-06-19T03:21:46.091Z,1002.36
2023-06-19T03:22:46.091Z,1002.37
2023-06-19T03:23:46.085Z,1002.35
2023-06-19T03:24:46.164Z,1002.36
2023-06-19T03:25:46.054Z,1002.39
2023-06-19T03:26:46.090Z,1002.41
2023-06-19T03:27:46.018Z,1002.43
2023-06-19T03:28:46.033Z,1002.42
2023-06-19T03:29:46.001Z,1002.42
2023-06-19T03:30:46.045Z,1002.46
2023-06-19T03:31:46.002Z,1002.51
2023-06-19T03:32:46.107Z,1002.52
2023-06-19T03:33:45.994Z,1002.56
2023-06-19T03:34:45.983Z,1002.54
2023-06-19T03:35:45.933Z,1002.56
2023-06-19T03:36:45.987Z,1002.60
2023-06-19T03:37:45.904Z,1002.62
2023-06-19T03:38:45.901Z,1002.63
2023-06-19T03:39:45.879Z,1002.62
2023-06-19T03:40:45.883Z,1002.60
2023-06-19T03:41:45.926Z,1002.59
2023-06-19T03:42:45.872Z,1002.60
2023-06-19T03:43:45.850Z,1002.61
2023-06-19T03:44:45.842Z,1002.64
2023-06-19T03:45:45.881Z,1002.64
2023-06-19T03:46:45.866Z,1002.63
2023-06-19T03:47:45.885Z,1002.63
2023-06-19T03:48:45.762Z,1002.63
2023-06-19T03:49:45.803Z,1002.65
2023-06-19T03:50:45.751Z,1002.68
2023-06-19T03:51:45.783Z,1002.66
2023-06-19T03:52:45.722Z,1002.65
2023-06-19T03:53:45.792Z,1002.66
2023-06-19T03:54:45.701Z,1002.67
2023-06-19T03:55:45.706Z,1002.70
2023-06-19T03:56:45.711Z,1002.73
2023-06-19T03:57:45.694Z,1002.77
2023-06-19T03:58:45.717Z,1002.82
2023-06-19T03:59:45.656Z,1002.83
2023-06-19T04:00:45.621Z,1002.83
2023-06-19T04:01:45.682Z,1002.81
2023-06-19T04:02:45.609Z,1002.83
2023-06-19T04:03:45.629Z,1002.82
2023-06-19T04:04:45.607Z,1002.85
2023-06-19T04:05:45.587Z,1002.87
2023-06-19T04:06:45.589Z,1002.90
2023-06-19T04:07:45.571Z,1002.90
2023-06-19T04:08:45.543Z,1002.92
2023-06-19T04:09:45.533Z,1002.96
2023-06-19T04:10:45.528Z,1002.98
2023-06-19T04:11:45.578Z,1003.01
2023-06-19T04:12:45.480Z,1003.04
2023-06-19T04:13:45.508Z,1003.05
2023-06-19T04:14:45.484Z,1003.08
2023-06-19T04:15:46.960Z,1003.11
2023-06-19T04:16:45.436Z,1003.14
2023-06-19T04:17:45.464Z,1003.14
2023-06-19T04:18:45.426Z,1003.15
2023-06-19T04:19:45.437Z,1003.15
2023-06-19T04:20:45.385Z,1003.16
2023-06-19T04:21:45.431Z,1003.20
2023-06-19T04:22:45.370Z,1003.19
2023-06-19T04:23:45.364Z,1003.20
2023-06-19T04:24:45.358Z,1003.20
2023-06-19T04:25:45.354Z,1003.17
2023-06-19T04:26:45.333Z,1003.17
2023-06-19T04:27:45.359Z,1003.16
2023-06-19T04:28:45.286Z,1003.16
2023-06-19T04:29:45.304Z,1003.17
2023-06-19T04:30:45.369Z,1003.15
2023-06-19T04:31:45.273Z,1003.15
2023-06-19T04:32:45.394Z,1003.16
2023-06-19T04:33:45.295Z,1003.13
2023-06-19T04:34:45.289Z,1003.10
2023-06-19T04:35:45.226Z,1003.13
2023-06-19T04:36:45.205Z,1003.11
2023-06-19T04:37:45.219Z,1003.10
2023-06-19T04:38:45.210Z,1003.10
2023-06-19T04:39:45.184Z,1003.12
2023-06-19T04:40:45.170Z,1003.11
2023-06-19T04:41:45.156Z,1003.10
2023-06-19T04:42:45.155Z,1003.13
2023-06-19T04:43:45.133Z,1003.14
2023-06-19T04:44:45.122Z,1003.12
2023-06-19T04:45:45.118Z,1003.12
2023-06-19T04:46:45.388Z,1003.15
2023-06-19T04:47:53.284Z,1003.12
2023-06-19T04:48:45.088Z,1003.11
2023-06-19T04:49:45.098Z,1003.11
2023-06-19T04:50:45.056Z,1003.14
2023-06-19T04:51:45.083Z,1003.10
2023-06-19T04:52:45.002Z,1003.14
2023-06-19T04:53:45.021Z,1003.06
2023-06-19T04:54:45.022Z,1003.03
2023-06-19T04:55:45.031Z,1003.05
2023-06-19T04:56:44.973Z,1003.09
2023-06-19T04:57:44.979Z,1003.11
2023-06-19T04:58:44.961Z,1003.07
2023-06-19T04:59:44.983Z,1003.10
2023-06-19T05:00:44.947Z,1003.08
2023-06-19T05:01:44.999Z,1003.12
2023-06-19T05:02:45.264Z,1003.08
2023-06-19T05:03:44.947Z,1003.10
2023-06-19T05:04:45.075Z,1003.10
2023-06-19T05:05:44.882Z,1003.04
2023-06-19T05:06:44.860Z,1003.10
2023-06-19T05:07:44.911Z,1003.11
2023-06-19T05:08:44.840Z,1003.12
2023-06-19T05:09:44.852Z,1003.09
2023-06-19T05:10:46.479Z,1003.05
2023-06-19T05:11:44.817Z,1003.04
2023-06-19T05:12:44.858Z,1003.00
2023-06-19T05:13:44.805Z,1002.98
2023-06-19T05:14:44.827Z,1003.01
2023-06-19T05:15:44.843Z,1003.01
2023-06-19T05:16:44.840Z,1003.00
2023-06-19T05:17:44.836Z,1003.05
2023-06-19T05:18:44.777Z,1003.06
2023-06-19T05:19:44.732Z,1003.14
2023-06-19T05:20:44.735Z,1003.08
2023-06-19T05:21:44.696Z,1003.11
2023-06-19T05:22:44.714Z,1003.08
2023-06-19T05:23:44.673Z,1003.06
2023-06-19T05:24:44.761Z,1003.08
2023-06-19T05:25:44.647Z,1003.18
2023-06-19T05:26:44.689Z,1003.19
2023-06-19T05:27:44.639Z,1003.27
2023-06-19T05:28:44.634Z,1003.34
2023-06-19T05:29:44.632Z,1003.28
2023-06-19T05:30:44.636Z,1003.26
2023-06-19T05:31:44.611Z,1003.26
2023-06-19T05:32:44.638Z,1003.32
2023-06-19T05:33:44.575Z,1003.35
2023-06-19T05:34:44.579Z,1003.32
2023-06-19T05:35:44.565Z,1003.33
2023-06-19T05:36:44.554Z,1003.35
2023-06-19T05:37:44.527Z,1003.38
2023-06-19T05:38:44.567Z,1003.34
2023-06-19T05:39:44.497Z,1003.42
2023-06-19T05:40:44.505Z,1003.40
2023-06-19T05:41:44.492Z,1003.40
2023-06-19T05:42:44.520Z,1003.47
2023-06-19T05:43:44.501Z,1003.53
2023-06-19T05:44:44.461Z,1003.49
2023-06-19T05:45:44.521Z,1003.44
2023-06-19T05:46:44.524Z,1003.41
2023-06-19T05:47:44.477Z,1003.42
2023-06-19T05:48:44.416Z,1003.46
2023-06-19T05:49:44.390Z,1003.46
2023-06-19T05:50:44.389Z,1003.46
2023-06-19T05:51:44.387Z,1003.49
2023-06-19T05:52:44.431Z,1003.43
2023-06-19T05:53:44.348Z,1003.48
2023-06-19T05:54:44.434Z,1003.49
2023-06-19T05:55:44.318Z,1003.49
2023-06-19T05:56:44.325Z,1003.49
2023-06-19T05:57:44.316Z,1003.47
2023-06-19T05:58:44.329Z,1003.48
2023-06-19T05:59:44.280Z,1003.45
2023-06-19T06:00:44.297Z,1003.50
2023-06-19T06:01:44.316Z,1003.47
2023-06-19T06:02:44.319Z,1003.47
2023-06-19T06:03:44.232Z,1003.48
2023-06-19T06:04:44.315Z,1003.49
2023-06-19T06:05:44.208Z,1003.52
2023-06-19T06:06:44.210Z,1003.58
2023-06-19T06:07:44.194Z,1003.54
2023-06-19T06:08:44.200Z,1003.55
2023-06-19T06:09:44.221Z,1003.54
2023-06-19T06:10:44.195Z,1003.53
2023-06-19T06:11:44.145Z,1003.49
2023-06-19T06:12:44.199Z,1003.53
2023-06-19T06:13:44.108Z,1003.58
2023-06-19T06:14:44.179Z,1003.57
2023-06-19T06:15:44.117Z,1003.54
2023-06-19T06:16:44.177Z,1003.56
2023-06-19T06:17:44.176Z,1003.57
2023-06-19T06:18:44.133Z,1003.52
2023-06-19T06:19:50.092Z,1003.55
2023-06-19T06:20:44.796Z,1003.59
2023-06-19T06:21:45.685Z,1003.65
2023-06-19T06:22:44.102Z,1003.59
2023-06-19T06:23:44.001Z,1003.49
2023-06-19T06:24:44.082Z,1003.44
2023-06-19T06:25:43.983Z,1003.49
2023-06-19T06:26:44.023Z,1003.49
2023-06-19T06:27:43.995Z,1003.45
2023-06-19T06:28:43.989Z,1003.52
2023-06-19T06:29:43.978Z,1003.62
2023-06-19T06:30:43.954Z,1003.51
2023-06-19T06:31:43.914Z,1003.54
2023-06-19T06:32:43.970Z,1003.48
2023-06-19T06:33:43.916Z,1003.46
2023-06-19T06:34:43.902Z,1003.45
2023-06-19T06:35:43.865Z,1003.47
2023-06-19T06:36:52.907Z,1003.54
2023-06-19T06:37:43.846Z,1003.54
2023-06-19T06:38:43.878Z,1003.49
2023-06-19T06:39:43.821Z,1003.54
2023-06-19T06:40:43.855Z,1003.65
2023-06-19T06:41:43.794Z,1003.56
2023-06-19T06:42:43.814Z,1003.54
2023-06-19T06:43:43.775Z,1003.57
2023-06-19T06:44:43.833Z,1003.59
2023-06-19T06:45:44.005Z,1003.62
2023-06-19T06:46:43.784Z,1003.64
2023-06-19T06:47:43.784Z,1003.67
2023-06-19T06:48:43.761Z,1003.67
2023-06-19T06:49:43.708Z,1003.72
2023-06-19T06:50:43.745Z,1003.71
2023-06-19T06:51:43.685Z,1003.78
2023-06-19T06:52:43.713Z,1003.73
2023-06-19T06:53:43.669Z,1003.75
2023-06-19T06:54:43.708Z,1003.73
2023-06-19T06:55:43.675Z,1003.71
2023-06-19T06:56:43.653Z,1003.77
2023-06-19T06:57:43.634Z,1003.73
2023-06-19T06:58:43.637Z,1003.73
2023-06-19T06:59:43.616Z,1003.78
2023-06-19T07:00:43.655Z,1003.66
2023-06-19T07:01:43.619Z,1003.69
2023-06-19T07:02:43.706Z,1003.74
2023-06-19T07:03:43.655Z,1003.77
2023-06-19T07:04:43.577Z,1003.75
2023-06-19T07:05:43.538Z,1003.82
2023-06-19T07:06:43.554Z,1003.82
2023-06-19T07:07:43.542Z,1003.78
2023-06-19T07:08:43.530Z,1003.89
2023-06-19T07:09:43.514Z,1003.90
2023-06-19T07:10:43.524Z,1003.96
2023-06-19T07:11:43.516Z,1003.89
2023-06-19T07:12:43.538Z,1003.92
2023-06-19T07:13:43.460Z,1003.93
2023-06-19T07:14:43.480Z,1003.95
2023-06-19T07:15:43.459Z,1003.96
2023-06-19T07:16:43.512Z,1003.96
2023-06-19T07:17:43.585Z,1003.98
2023-06-19T07:18:43.464Z,1004.03
2023-06-19T07:19:43.417Z,1003.95
2023-06-19T07:20:43.420Z,1003.93
2023-06-19T07:21:43.393Z,1004.00
2023-06-19T07:22:43.390Z,1003.93
2023-06-19T07:23:43.397Z,1004.04
2023-06-19T07:24:43.541Z,1003.92
2023-06-19T07:25:43.342Z,1003.99
2023-06-19T07:26:43.364Z,1003.95
2023-06-19T07:27:43.338Z,1004.07
2023-06-19T07:28:43.341Z,1003.99
2023-06-19T07:29:43.341Z,1004.01
2023-06-19T07:30:43.328Z,1003.98
2023-06-19T07:31:43.272Z,1003.95
2023-06-19T07:32:43.356Z,1003.92
2023-06-19T07:33:43.258Z,1003.88
2023-06-19T07:34:43.278Z,1003.84
2023-06-19T07:35:43.273Z,1003.96
2023-06-19T07:36:43.298Z,1003.98
2023-06-19T07:37:43.209Z,1004.00
2023-06-19T07:38:43.223Z,1003.99
2023-06-19T07:39:43.209Z,1004.01
2023-06-19T07:40:43.231Z,1004.04
2023-06-19T07:41:43.192Z,1004.10
2023-06-19T07:42:44.767Z,1004.01
2023-06-19T07:43:43.149Z,1004.02
2023-06-19T07:44:43.171Z,1004.02
2023-06-19T07:45:43.196Z,1004.14
2023-06-19T07:46:43.156Z,1004.08
2023-06-19T07:47:43.163Z,1004.07
2023-06-19T07:48:43.104Z,1004.03
2023-06-19T07:49:43.110Z,1003.91
2023-06-19T07:50:43.109Z,1003.86
2023-06-19T07:51:43.100Z,1003.86
2023-06-19T07:52:43.118Z,1003.89
2023-06-19T07:53:43.024Z,1003.90
2023-06-19T07:54:43.050Z,1003.89
2023-06-19T07:55:43.006Z,1003.93
2023-06-19T07:56:43.027Z,1003.97
2023-06-19T07:57:42.991Z,1004.04
2023-06-19T07:58:43.017Z,1004.12
2023-06-19T07:59:42.966Z,1004.08
2023-06-19T08:00:42.972Z,1004.14
2023-06-19T08:01:42.962Z,1004.08
2023-06-19T08:02:43.061Z,1004.06
2023-06-19T08:03:42.980Z,1004.06
2023-06-19T08:04:42.957Z,1004.06
2023-06-19T08:05:42.898Z,1004.10
2023-06-19T08:06:42.918Z,1004.14
2023-06-19T08:07:42.873Z,1004.18
2023-06-19T08:08:42.894Z,1004.26
2023-06-19T08:09:42.891Z,1004.16
2023-06-19T08:10:42.875Z,1004.20
2023-06-19T08:11:42.829Z,1004.16
2023-06-19T08:12:42.843Z,1004.16
2023-06-19T08:13:42.817Z,1004.16
2023-06-19T08:14:42.812Z,1004.14
2023-06-19T08:15:42.824Z,1004.14
2023-06-19T08:16:42.808Z,1004.10
2023-06-19T08:17:42.789Z,1004.06
2023-06-19T08:18:42.790Z,1003.95
2023-06-19T08:19:42.754Z,1003.97
2023-06-19T08:20:42.791Z,1004.04
2023-06-19T08:21:42.748Z,1003.97
2023-06-19T08:22:42.739Z,1004.07
2023-06-19T08:23:42.712Z,1004.04
2023-06-19T08:24:42.746Z,1004.05
2023-06-19T08:25:42.688Z,1004.09
2023-06-19T08:26:42.711Z,1004.15
2023-06-19T08:27:42.719Z,1004.07
2023-06-19T08:28:42.722Z,1004.01
2023-06-19T08:29:42.637Z,1004.04
2023-06-19T08:30:42.650Z,1004.05
2023-06-19T08:31:42.614Z,1004.12
2023-06-19T08:32:42.671Z,1004.10
2023-06-19T08:33:42.628Z,1004.14
2023-06-19T08:34:42.618Z,1004.15
2023-06-19T08:35:42.578Z,1004.20
2023-06-19T08:36:42.582Z,1004.08
2023-06-19T08:37:42.554Z,1004.28
2023-06-19T08:38:42.593Z,1004.22
2023-06-19T08:39:42.525Z,1004.16
2023-06-19T08:40:42.553Z,1004.12
2023-06-19T08:41:42.497Z,1004.15
2023-06-19T08:42:42.531Z,1004.22
2023-06-19T08:43:42.484Z,1004.18
2023-06-19T08:44:42.547Z,1004.19
2023-06-19T08:45:42.475Z,1004.17
2023-06-19T08:46:42.539Z,1004.20
2023-06-19T08:47:42.482Z,1004.12
2023-06-19T08:48:42.471Z,1004.15
2023-06-19T08:49:42.424Z,1004.12
2023-06-19T08:50:42.458Z,1004.14
2023-06-19T08:51:42.405Z,1004.05
2023-06-19T08:52:42.414Z,1004.15
2023-06-19T08:53:42.390Z,1004.12
2023-06-19T08:54:42.398Z,1004.20
2023-06-19T08:55:42.386Z,1004.12
2023-06-19T08:56:42.398Z,1004.15
2023-06-19T08:57:42.333Z,1004.07
2023-06-19T08:58:42.351Z,1004.08
2023-06-19T08:59:42.351Z,1004.02
2023-06-19T09:00:42.335Z,1004.05
2023-06-19T09:01:42.326Z,1004.12
2023-06-19T09:02:42.520Z,1004.03
2023-06-19T09:03:42.364Z,1004.03
2023-06-19T09:04:42.299Z,1004.08
2023-06-19T09:05:42.773Z,1004.06
2023-06-19T09:06:42.354Z,1004.00
2023-06-19T09:07:42.259Z,1004.09
2023-06-19T09:08:42.247Z,1004.08
2023-06-19T09:09:42.204Z,1004.08
2023-06-19T09:10:42.239Z,1004.13
2023-06-19T09:11:42.204Z,1004.12
2023-06-19T09:12:42.226Z,1004.12
2023-06-19T09:13:42.168Z,1004.05
2023-06-19T09:14:42.175Z,1004.04
2023-06-19T09:15:42.145Z,1004.07
2023-06-19T09:16:42.205Z,1003.97
2023-06-19T09:17:42.191Z,1003.99
2023-06-19T09:18:42.145Z,1004.01
2023-06-19T09:19:42.103Z,1004.04
2023-06-19T09:20:42.125Z,1004.01
2023-06-19T09:21:42.082Z,1004.09
2023-06-19T09:22:42.161Z,1004.01
2023-06-19T09:23:42.054Z,1003.95
2023-06-19T09:24:42.284Z,1004.05
2023-06-19T09:25:42.030Z,1004.04
2023-06-19T09:26:42.046Z,1004.05
2023-06-19T09:27:42.051Z,1003.93
2023-06-19T09:28:42.037Z,1004.03
2023-06-19T09:29:41.998Z,1004.04
2023-06-19T09:30:42.003Z,1003.94
2023-06-19T09:31:41.972Z,1003.96
2023-06-19T09:32:42.056Z,1004.00
2023-06-19T09:33:42.049Z,1003.94
2023-06-19T09:34:41.939Z,1004.06
2023-06-19T09:35:41.948Z,1003.87
2023-06-19T09:36:41.920Z,1003.88
2023-06-19T09:37:41.924Z,1003.90
2023-06-19T09:38:42.282Z,1003.99
2023-06-19T09:39:41.941Z,1003.91
2023-06-19T09:40:41.870Z,1004.01
2023-06-19T09:41:41.887Z,1004.03
2023-06-19T09:42:41.846Z,1003.99
2023-06-19T09:43:41.861Z,1003.96
2023-06-19T09:44:46.118Z,1003.97
2023-06-19T09:45:41.863Z,1004.02
2023-06-19T09:46:41.841Z,1004.05
2023-06-19T09:47:41.900Z,1004.04
2023-06-19T09:48:41.803Z,1004.03
2023-06-19T09:49:41.793Z,1004.01
2023-06-19T09:50:41.794Z,1004.06
2023-06-19T09:51:41.777Z,1004.05
2023-06-19T09:52:41.748Z,1004.04
2023-06-19T09:53:41.870Z,1004.10
2023-06-19T09:54:41.721Z,1004.05
2023-06-19T09:55:41.768Z,1004.10
2023-06-19T09:56:41.702Z,1004.15
2023-06-19T09:57:41.715Z,1004.21
2023-06-19T09:58:41.682Z,1004.13
2023-06-19T09:59:41.686Z,1004.10
2023-06-19T10:00:41.663Z,1004.00
2023-06-19T10:01:41.694Z,1004.03
2023-06-19T10:02:41.717Z,1003.96
2023-06-19T10:03:41.715Z,1003.92
2023-06-19T10:04:41.612Z,1004.01
2023-06-19T10:05:41.626Z,1003.97
2023-06-19T10:06:41.594Z,1003.96
2023-06-19T10:07:41.630Z,1003.93
2023-06-19T10:08:41.585Z,1004.02
2023-06-19T10:09:41.587Z,1004.08
2023-06-19T10:10:41.559Z,1003.97
2023-06-19T10:11:41.568Z,1004.03
2023-06-19T10:12:41.535Z,1004.06
2023-06-19T10:13:41.567Z,1004.00
2023-06-19T10:14:41.512Z,1004.00
2023-06-19T10:15:41.534Z,1004.05
2023-06-19T10:16:41.528Z,1004.03
2023-06-19T10:17:41.580Z,1003.96
2023-06-19T10:18:41.499Z,1003.91
2023-06-19T10:19:41.490Z,1003.94
2023-06-19T10:20:46.851Z,1003.96
2023-06-19T10:21:41.459Z,1003.99
2023-06-19T10:22:41.429Z,1003.97
2023-06-19T10:23:41.466Z,1003.92
2023-06-19T10:24:41.562Z,1003.93
2023-06-19T10:25:41.425Z,1003.89
2023-06-19T10:26:41.409Z,1003.91
2023-06-19T10:27:43.178Z,1003.98
2023-06-19T10:28:41.438Z,1003.91
2023-06-19T10:29:42.445Z,1003.96
2023-06-19T10:30:41.367Z,1003.93
2023-06-19T10:31:41.364Z,1003.90
2023-06-19T10:32:41.362Z,1003.86
2023-06-19T10:33:41.604Z,1003.89
2023-06-19T10:34:41.312Z,1003.94
2023-06-19T10:35:41.375Z,1003.89
2023-06-19T10:36:41.294Z,1003.87
2023-06-19T10:37:41.305Z,1003.85
2023-06-19T10:38:41.287Z,1003.86
2023-06-19T10:39:41.278Z,1003.81
2023-06-19T10:40:41.264Z,1003.79
2023-06-19T10:41:41.269Z,1003.82
2023-06-19T10:42:41.238Z,1003.80
2023-06-19T10:43:41.241Z,1003.79
2023-06-19T10:44:41.236Z,1003.82
2023-06-19T10:45:41.269Z,1003.71
2023-06-19T10:46:41.185Z,1003.80
2023-06-19T10:47:41.244Z,1003.84
2023-06-19T10:48:41.179Z,1003.77
2023-06-19T10:49:41.169Z,1003.81
2023-06-19T10:50:41.161Z,1003.78
2023-06-19T10:51:41.181Z,1003.79
2023-06-19T10:52:41.107Z,1003.85
2023-06-19T10:53:41.142Z,1003.87
2023-06-19T10:54:41.098Z,1003.84
2023-06-19T10:55:41.096Z,1003.86
2023-06-19T10:56:41.121Z,1003.87
2023-06-19T10:57:41.100Z,1003.82
2023-06-19T10:58:41.044Z,1003.82
2023-06-19T10:59:41.059Z,1003.81
2023-06-19T11:00:41.030Z,1003.81
2023-06-19T11:01:41.147Z,1003.81
2023-06-19T11:02:41.108Z,1003.76
2023-06-19T11:03:41.050Z,1003.76
2023-06-19T11:04:40.985Z,1003.75
2023-06-19T11:05:40.993Z,1003.74
2023-06-19T11:06:40.991Z,1003.74
2023-06-19T11:07:40.984Z,1003.81
2023-06-19T11:08:40.951Z,1003.76
2023-06-19T11:09:43.169Z,1003.76
2023-06-19T11:10:40.909Z,1003.70
2023-06-19T11:11:40.942Z,1003.68
2023-06-19T11:12:40.897Z,1003.71
2023-06-19T11:13:40.916Z,1003.70
2023-06-19T11:14:40.917Z,1003.67
2023-06-19T11:15:40.912Z,1003.64
2023-06-19T11:16:40.905Z,1003.65
2023-06-19T11:17:40.923Z,1003.67
2023-06-19T11:18:40.869Z,1003.71
2023-06-19T11:19:40.842Z,1003.63
2023-06-19T11:20:40.822Z,1003.59
2023-06-19T11:21:40.839Z,1003.60
2023-06-19T11:22:40.791Z,1003.58
2023-06-19T11:23:40.804Z,1003.58
2023-06-19T11:24:40.828Z,1003.59
2023-06-19T11:25:40.786Z,1003.60
2023-06-19T11:26:40.752Z,1003.70
2023-06-19T11:27:40.797Z,1003.57
2023-06-19T11:28:41.424Z,1003.52
2023-06-19T11:29:40.751Z,1003.49
2023-06-19T11:30:40.753Z,1003.52
2023-06-19T11:31:40.728Z,1003.52
2023-06-19T11:32:40.709Z,1003.58
2023-06-19T11:33:40.704Z,1003.56
2023-06-19T11:34:40.687Z,1003.48
2023-06-19T11:35:40.666Z,1003.67
2023-06-19T11:36:40.667Z,1003.60
2023-06-19T11:37:40.653Z,1003.63
2023-06-19T11:38:40.622Z,1003.57
2023-06-19T11:39:40.632Z,1003.56
2023-06-19T11:40:40.591Z,1003.56
2023-06-19T11:41:40.711Z,1003.56
2023-06-19T11:42:40.592Z,1003.53
2023-06-19T11:43:40.590Z,1003.48
2023-06-19T11:44:40.545Z,1003.48
2023-06-19T11:45:40.567Z,1003.49
2023-06-19T11:46:40.551Z,1003.49
2023-06-19T11:47:40.553Z,1003.51
2023-06-19T11:48:40.496Z,1003.45
2023-06-19T11:49:40.516Z,1003.46
2023-06-19T11:50:40.497Z,1003.46
2023-06-19T11:51:40.526Z,1003.48
2023-06-19T11:52:40.470Z,1003.48
2023-06-19T11:53:40.469Z,1003.44
2023-06-19T11:54:40.441Z,1003.44
2023-06-19T11:55:40.458Z,1003.41
2023-06-19T11:56:40.433Z,1003.40
2023-06-19T11:57:40.457Z,1003.44
2023-06-19T11:58:40.415Z,1003.47
2023-06-19T11:59:40.434Z,1003.50
2023-06-19T12:00:40.383Z,1003.42
2023-06-19T12:01:40.419Z,1003.49
2023-06-19T12:02:40.509Z,1003.45
2023-06-19T12:03:41.678Z,1003.40
2023-06-19T12:04:40.449Z,1003.48
2023-06-19T12:05:40.347Z,1003.46